Mackville, Vermont
Current Conditions -  °F | °C
As of 3:54 AM on Friday 24 Oct 2014 (Local Time) from KMVL Reporting Station
Overcast Overcast  
Wind Chill: 39°   Ceiling: 1300
Heat Index: 43°   Visibility: 10mi
Dew Point: 41°   Wind: 6mph
Humidity: 93%   Direction: 10°N
Pressure: 29.82"   Gusts: NA
Location:  44.5213°N, 72.3604°W
Report Text: KMVL 240754Z AUTO 01005KT 10SM BKN013 OVC018 06/05 A2982 RMK AO2 RAE13 SLP103 P0000 T00610050
Loading
Personal Weather Stations






























Interactive Weather Map
Tropical Storm Tracking
New forecast layout! Learn more

10-Day Weather Forecast

Advertisements
Track Severe Weather on mobile